sensor_id;sensor_type;location;lat;lon;timestamp;pressure;altitude;pressure_sealevel;temperature;humidity
77381;BME280;66439;50.106;10.996;2024-01-27T00:00:45;100226.41;;;6.73;60.40
77381;BME280;66439;50.106;10.996;2024-01-27T00:03:07;100228.44;;;6.69;60.43
77381;BME280;66439;50.106;10.996;2024-01-27T00:05:10;100230.77;;;6.67;60.49
77381;BME280;66439;50.106;10.996;2024-01-27T00:07:13;100229.22;;;6.64;60.46
77381;BME280;66439;50.106;10.996;2024-01-27T00:09:16;100232.90;;;6.60;60.03
77381;BME280;66439;50.106;10.996;2024-01-27T00:11:19;100229.02;;;6.51;60.15
77381;BME280;66439;50.106;10.996;2024-01-27T00:13:24;100227.34;;;6.48;60.45
77381;BME280;66439;50.106;10.996;2024-01-27T00:15:27;100230.31;;;6.46;60.26
77381;BME280;66439;50.106;10.996;2024-01-27T00:17:30;100231.88;;;6.41;60.24
77381;BME280;66439;50.106;10.996;2024-01-27T00:19:32;100231.45;;;6.41;60.54
77381;BME280;66439;50.106;10.996;2024-01-27T00:21:38;100237.10;;;6.40;60.54
77381;BME280;66439;50.106;10.996;2024-01-27T00:23:41;100237.21;;;6.39;60.25
77381;BME280;66439;50.106;10.996;2024-01-27T00:25:43;100240.20;;;6.39;60.36
77381;BME280;66439;50.106;10.996;2024-01-27T00:27:46;100240.86;;;6.39;60.31
77381;BME280;66439;50.106;10.996;2024-01-27T00:29:48;100242.11;;;6.39;60.40
77381;BME280;66439;50.106;10.996;2024-01-27T00:31:51;100242.54;;;6.40;60.45
77381;BME280;66439;50.106;10.996;2024-01-27T00:33:54;100242.86;;;6.38;60.09
77381;BME280;66439;50.106;10.996;2024-01-27T00:35:56;100241.10;;;6.36;60.23
77381;BME280;66439;50.106;10.996;2024-01-27T00:37:59;100240.12;;;6.35;60.36
77381;BME280;66439;50.106;10.996;2024-01-27T00:40:02;100240.86;;;6.34;60.13
77381;BME280;66439;50.106;10.996;2024-01-27T00:42:05;100249.91;;;6.33;60.26
77381;BME280;66439;50.106;10.996;2024-01-27T00:44:07;100252.29;;;6.35;60.51
77381;BME280;66439;50.106;10.996;2024-01-27T00:46:10;100254.45;;;6.37;60.41
77381;BME280;66439;50.106;10.996;2024-01-27T00:48:13;100256.27;;;6.38;60.67
77381;BME280;66439;50.106;10.996;2024-01-27T00:50:16;100250.66;;;6.42;60.50
77381;BME280;66439;50.106;10.996;2024-01-27T00:52:18;100247.09;;;6.45;60.33
77381;BME280;66439;50.106;10.996;2024-01-27T00:54:21;100242.10;;;6.48;60.44
77381;BME280;66439;50.106;10.996;2024-01-27T00:56:24;100242.61;;;6.50;60.44
77381;BME280;66439;50.106;10.996;2024-01-27T00:58:27;100244.89;;;6.53;60.60
77381;BME280;66439;50.106;10.996;2024-01-27T01:00:29;100249.34;;;6.52;60.20
77381;BME280;66439;50.106;10.996;2024-01-27T01:02:32;100252.16;;;6.54;60.42
77381;BME280;66439;50.106;10.996;2024-01-27T01:04:35;100254.19;;;6.55;60.24
77381;BME280;66439;50.106;10.996;2024-01-27T01:06:41;100257.25;;;6.54;60.12
77381;BME280;66439;50.106;10.996;2024-01-27T01:08:44;100262.20;;;6.54;59.97
77381;BME280;66439;50.106;10.996;2024-01-27T01:10:47;100265.79;;;6.51;59.88
77381;BME280;66439;50.106;10.996;2024-01-27T01:12:50;100266.16;;;6.51;59.94
77381;BME280;66439;50.106;10.996;2024-01-27T01:14:52;100266.73;;;6.48;59.78
77381;BME280;66439;50.106;10.996;2024-01-27T01:16:55;100260.29;;;6.47;59.87
77381;BME280;66439;50.106;10.996;2024-01-27T01:18:57;100260.98;;;6.48;60.03
77381;BME280;66439;50.106;10.996;2024-01-27T01:21:00;100266.08;;;6.43;59.49
77381;BME280;66439;50.106;10.996;2024-01-27T01:23:03;100269.96;;;6.36;59.50
77381;BME280;66439;50.106;10.996;2024-01-27T01:25:06;100281.50;;;6.32;59.53
77381;BME280;66439;50.106;10.996;2024-01-27T01:27:09;100284.83;;;6.23;59.34
77381;BME280;66439;50.106;10.996;2024-01-27T01:29:11;100293.01;;;6.18;59.65
77381;BME280;66439;50.106;10.996;2024-01-27T01:31:14;100296.07;;;6.12;59.52
77381;BME280;66439;50.106;10.996;2024-01-27T01:33:16;100296.71;;;6.06;59.72
77381;BME280;66439;50.106;10.996;2024-01-27T01:35:19;100309.58;;;5.99;59.58
77381;BME280;66439;50.106;10.996;2024-01-27T01:37:23;100308.96;;;5.90;59.75
77381;BME280;66439;50.106;10.996;2024-01-27T01:39:26;100307.42;;;5.84;59.88
77381;BME280;66439;50.106;10.996;2024-01-27T01:41:28;100303.77;;;5.81;60.09
77381;BME280;66439;50.106;10.996;2024-01-27T01:43:31;100307.34;;;5.81;60.23
77381;BME280;66439;50.106;10.996;2024-01-27T01:45:33;100303.04;;;5.81;60.38
77381;BME280;66439;50.106;10.996;2024-01-27T01:47:36;100301.31;;;5.81;60.30
77381;BME280;66439;50.106;10.996;2024-01-27T01:49:39;100299.39;;;5.79;60.25
77381;BME280;66439;50.106;10.996;2024-01-27T01:51:42;100301.58;;;5.76;60.18
77381;BME280;66439;50.106;10.996;2024-01-27T01:53:47;100305.25;;;5.71;60.37
77381;BME280;66439;50.106;10.996;2024-01-27T01:55:52;100298.92;;;5.66;60.60
77381;BME280;66439;50.106;10.996;2024-01-27T01:57:55;100299.73;;;5.65;60.50
77381;BME280;66439;50.106;10.996;2024-01-27T01:59:58;100304.14;;;5.65;60.86
77381;BME280;66439;50.106;10.996;2024-01-27T02:02:01;100307.23;;;5.63;60.70
77381;BME280;66439;50.106;10.996;2024-01-27T02:04:04;100310.65;;;5.62;60.88
77381;BME280;66439;50.106;10.996;2024-01-27T02:06:07;100315.88;;;5.63;60.77
77381;BME280;66439;50.106;10.996;2024-01-27T02:08:10;100318.62;;;5.61;60.77
77381;BME280;66439;50.106;10.996;2024-01-27T02:10:14;100319.66;;;5.61;60.83
77381;BME280;66439;50.106;10.996;2024-01-27T02:12:18;100321.54;;;5.60;60.99
77381;BME280;66439;50.106;10.996;2024-01-27T02:14:21;100321.93;;;5.54;60.76
77381;BME280;66439;50.106;10.996;2024-01-27T02:16:27;100323.89;;;5.49;60.90
77381;BME280;66439;50.106;10.996;2024-01-27T02:18:30;100321.75;;;5.45;60.89
77381;BME280;66439;50.106;10.996;2024-01-27T02:20:33;100328.11;;;5.44;60.98
77381;BME280;66439;50.106;10.996;2024-01-27T02:22:36;100334.52;;;5.44;61.03
77381;BME280;66439;50.106;10.996;2024-01-27T02:24:38;100338.11;;;5.43;61.21
77381;BME280;66439;50.106;10.996;2024-01-27T02:26:41;100337.42;;;5.42;61.08
77381;BME280;66439;50.106;10.996;2024-01-27T02:28:43;100338.69;;;5.42;61.23
77381;BME280;66439;50.106;10.996;2024-01-27T02:30:46;100339.05;;;5.41;60.98
77381;BME280;66439;50.106;10.996;2024-01-27T02:32:49;100340.10;;;5.39;61.03
77381;BME280;66439;50.106;10.996;2024-01-27T02:34:52;100337.09;;;5.34;61.06
77381;BME280;66439;50.106;10.996;2024-01-27T02:36:55;100338.11;;;5.32;61.31
77381;BME280;66439;50.106;10.996;2024-01-27T02:38:57;100342.54;;;5.34;61.33
77381;BME280;66439;50.106;10.996;2024-01-27T02:41:00;100343.54;;;5.35;61.37
77381;BME280;66439;50.106;10.996;2024-01-27T02:43:03;100342.70;;;5.32;61.34
77381;BME280;66439;50.106;10.996;2024-01-27T02:45:06;100349.55;;;5.30;61.28
77381;BME280;66439;50.106;10.996;2024-01-27T02:47:09;100353.41;;;5.27;61.38
77381;BME280;66439;50.106;10.996;2024-01-27T02:49:12;100356.02;;;5.25;61.49
77381;BME280;66439;50.106;10.996;2024-01-27T02:51:19;100361.75;;;5.24;61.67
77381;BME280;66439;50.106;10.996;2024-01-27T02:53:22;100362.93;;;5.24;61.77
77381;BME280;66439;50.106;10.996;2024-01-27T02:55:25;100368.98;;;5.25;61.61
77381;BME280;66439;50.106;10.996;2024-01-27T02:57:27;100372.77;;;5.27;61.68
77381;BME280;66439;50.106;10.996;2024-01-27T02:59:30;100372.54;;;5.28;61.80
77381;BME280;66439;50.106;10.996;2024-01-27T03:01:33;100375.59;;;5.29;61.70
77381;BME280;66439;50.106;10.996;2024-01-27T03:03:35;100375.65;;;5.31;61.74
77381;BME280;66439;50.106;10.996;2024-01-27T03:05:38;100381.09;;;5.33;61.68
77381;BME280;66439;50.106;10.996;2024-01-27T03:07:41;100381.89;;;5.34;61.66
77381;BME280;66439;50.106;10.996;2024-01-27T03:09:43;100383.68;;;5.34;61.63
77381;BME280;66439;50.106;10.996;2024-01-27T03:11:46;100385.61;;;5.34;61.62
77381;BME280;66439;50.106;10.996;2024-01-27T03:13:49;100384.40;;;5.34;61.69
77381;BME280;66439;50.106;10.996;2024-01-27T03:15:52;100382.60;;;5.32;61.60
77381;BME280;66439;50.106;10.996;2024-01-27T03:17:55;100387.13;;;5.30;61.71
77381;BME280;66439;50.106;10.996;2024-01-27T03:19:58;100388.58;;;5.29;61.76
77381;BME280;66439;50.106;10.996;2024-01-27T03:22:01;100386.17;;;5.29;61.69
77381;BME280;66439;50.106;10.996;2024-01-27T03:24:04;100386.55;;;5.26;61.53
77381;BME280;66439;50.106;10.996;2024-01-27T03:26:07;100381.67;;;5.23;61.68
77381;BME280;66439;50.106;10.996;2024-01-27T03:28:10;100375.27;;;5.19;61.80
77381;BME280;66439;50.106;10.996;2024-01-27T03:30:12;100380.76;;;5.16;61.93
77381;BME280;66439;50.106;10.996;2024-01-27T03:32:15;100381.48;;;5.13;61.98
77381;BME280;66439;50.106;10.996;2024-01-27T03:34:18;100383.91;;;5.11;62.00
77381;BME280;66439;50.106;10.996;2024-01-27T03:36:22;100388.70;;;5.10;62.24
77381;BME280;66439;50.106;10.996;2024-01-27T03:38:24;100389.95;;;5.12;62.18
77381;BME280;66439;50.106;10.996;2024-01-27T03:40:27;100387.48;;;5.15;62.37
77381;BME280;66439;50.106;10.996;2024-01-27T03:42:29;100388.10;;;5.16;62.40
77381;BME280;66439;50.106;10.996;2024-01-27T03:44:33;100389.85;;;5.17;62.47
77381;BME280;66439;50.106;10.996;2024-01-27T03:46:35;100393.30;;;5.17;62.62
77381;BME280;66439;50.106;10.996;2024-01-27T03:48:39;100398.54;;;5.18;62.62
77381;BME280;66439;50.106;10.996;2024-01-27T03:50:43;100394.73;;;5.17;62.44
77381;BME280;66439;50.106;10.996;2024-01-27T03:52:45;100399.39;;;5.16;62.55
77381;BME280;66439;50.106;10.996;2024-01-27T03:54:48;100409.11;;;5.15;62.61
77381;BME280;66439;50.106;10.996;2024-01-27T03:56:50;100409.81;;;5.12;62.53
77381;BME280;66439;50.106;10.996;2024-01-27T03:58:55;100415.01;;;5.11;62.70
77381;BME280;66439;50.106;10.996;2024-01-27T04:00:59;100412.95;;;5.10;62.57
77381;BME280;66439;50.106;10.996;2024-01-27T04:03:02;100416.52;;;5.09;62.75
77381;BME280;66439;50.106;10.996;2024-01-27T04:05:05;100417.41;;;5.09;62.85
77381;BME280;66439;50.106;10.996;2024-01-27T04:07:08;100417.19;;;5.07;62.79
77381;BME280;66439;50.106;10.996;2024-01-27T04:09:11;100419.52;;;5.04;62.67
77381;BME280;66439;50.106;10.996;2024-01-27T04:11:20;100426.52;;;5.02;62.76
77381;BME280;66439;50.106;10.996;2024-01-27T04:13:26;100426.48;;;5.00;62.78
77381;BME280;66439;50.106;10.996;2024-01-27T04:15:29;100432.69;;;4.97;62.83
77381;BME280;66439;50.106;10.996;2024-01-27T04:17:32;100433.77;;;4.96;62.95
77381;BME280;66439;50.106;10.996;2024-01-27T04:19:34;100434.05;;;4.94;63.00
77381;BME280;66439;50.106;10.996;2024-01-27T04:21:37;100435.17;;;4.94;62.94
77381;BME280;66439;50.106;10.996;2024-01-27T04:23:40;100439.52;;;4.92;62.71
77381;BME280;66439;50.106;10.996;2024-01-27T04:25:43;100437.21;;;4.87;62.61
77381;BME280;66439;50.106;10.996;2024-01-27T04:27:46;100441.73;;;4.84;62.84
77381;BME280;66439;50.106;10.996;2024-01-27T04:29:48;100441.04;;;4.84;63.00
77381;BME280;66439;50.106;10.996;2024-01-27T04:31:51;100441.58;;;4.84;62.89
77381;BME280;66439;50.106;10.996;2024-01-27T04:33:54;100441.40;;;4.84;63.07
77381;BME280;66439;50.106;10.996;2024-01-27T04:35:56;100437.38;;;4.84;62.99
77381;BME280;66439;50.106;10.996;2024-01-27T04:38:00;100436.33;;;4.82;63.08
77381;BME280;66439;50.106;10.996;2024-01-27T04:40:04;100437.22;;;4.82;63.16
77381;BME280;66439;50.106;10.996;2024-01-27T04:42:08;100434.84;;;4.80;62.94
77381;BME280;66439;50.106;10.996;2024-01-27T04:44:11;100430.98;;;4.78;62.88
77381;BME280;66439;50.106;10.996;2024-01-27T04:46:13;100425.65;;;4.73;62.80
77381;BME280;66439;50.106;10.996;2024-01-27T04:48:16;100424.86;;;4.69;62.71
77381;BME280;66439;50.106;10.996;2024-01-27T04:50:20;100425.88;;;4.65;62.63
77381;BME280;66439;50.106;10.996;2024-01-27T04:52:23;100420.37;;;4.60;62.60
77381;BME280;66439;50.106;10.996;2024-01-27T04:54:25;100416.48;;;4.56;62.73
77381;BME280;66439;50.106;10.996;2024-01-27T04:56:28;100418.39;;;4.53;62.83
77381;BME280;66439;50.106;10.996;2024-01-27T04:58:31;100420.60;;;4.49;63.01
77381;BME280;66439;50.106;10.996;2024-01-27T05:00:33;100426.52;;;4.50;62.96
77381;BME280;66439;50.106;10.996;2024-01-27T05:02:37;100430.67;;;4.51;63.12
77381;BME280;66439;50.106;10.996;2024-01-27T05:04:39;100431.93;;;4.50;63.14
77381;BME280;66439;50.106;10.996;2024-01-27T05:06:45;100433.23;;;4.50;63.14
77381;BME280;66439;50.106;10.996;2024-01-27T05:08:48;100434.67;;;4.49;63.08
77381;BME280;66439;50.106;10.996;2024-01-27T05:10:50;100434.00;;;4.48;62.94
77381;BME280;66439;50.106;10.996;2024-01-27T05:12:55;100437.48;;;4.46;62.94
77381;BME280;66439;50.106;10.996;2024-01-27T05:14:58;100436.00;;;4.47;63.35
77381;BME280;66439;50.106;10.996;2024-01-27T05:17:01;100438.48;;;4.49;63.27
77381;BME280;66439;50.106;10.996;2024-01-27T05:19:03;100446.92;;;4.52;63.42
77381;BME280;66439;50.106;10.996;2024-01-27T05:21:06;100454.12;;;4.55;63.31
77381;BME280;66439;50.106;10.996;2024-01-27T05:23:09;100450.54;;;4.56;63.28
77381;BME280;66439;50.106;10.996;2024-01-27T05:25:11;100449.87;;;4.58;63.43
77381;BME280;66439;50.106;10.996;2024-01-27T05:27:14;100448.48;;;4.57;63.26
77381;BME280;66439;50.106;10.996;2024-01-27T05:29:16;100452.14;;;4.58;63.29
77381;BME280;66439;50.106;10.996;2024-01-27T05:31:19;100450.05;;;4.57;63.26
77381;BME280;66439;50.106;10.996;2024-01-27T05:33:21;100451.95;;;4.58;63.17
77381;BME280;66439;50.106;10.996;2024-01-27T05:35:24;100454.11;;;4.57;63.22
77381;BME280;66439;50.106;10.996;2024-01-27T05:37:27;100452.15;;;4.58;63.28
77381;BME280;66439;50.106;10.996;2024-01-27T05:39:29;100458.30;;;4.57;63.51
77381;BME280;66439;50.106;10.996;2024-01-27T05:41:32;100455.39;;;4.57;63.39
77381;BME280;66439;50.106;10.996;2024-01-27T05:43:35;100453.32;;;4.56;63.58
77381;BME280;66439;50.106;10.996;2024-01-27T05:45:37;100453.52;;;4.56;63.50
77381;BME280;66439;50.106;10.996;2024-01-27T05:47:40;100454.65;;;4.54;63.53
77381;BME280;66439;50.106;10.996;2024-01-27T05:49:43;100461.41;;;4.50;63.25
77381;BME280;66439;50.106;10.996;2024-01-27T05:51:46;100462.81;;;4.48;63.40
77381;BME280;66439;50.106;10.996;2024-01-27T05:53:49;100462.75;;;4.46;63.58
77381;BME280;66439;50.106;10.996;2024-01-27T05:55:53;100464.21;;;4.45;63.59
77381;BME280;66439;50.106;10.996;2024-01-27T05:58:01;100469.07;;;4.44;63.73
77381;BME280;66439;50.106;10.996;2024-01-27T06:00:05;100470.73;;;4.39;63.38
77381;BME280;66439;50.106;10.996;2024-01-27T06:02:08;100472.77;;;4.38;63.46
77381;BME280;66439;50.106;10.996;2024-01-27T06:04:11;100469.69;;;4.36;63.50
77381;BME280;66439;50.106;10.996;2024-01-27T06:06:17;100471.23;;;4.37;63.72
77381;BME280;66439;50.106;10.996;2024-01-27T06:08:20;100478.09;;;4.37;63.52
77381;BME280;66439;50.106;10.996;2024-01-27T06:10:22;100479.36;;;4.33;63.46
77381;BME280;66439;50.106;10.996;2024-01-27T06:12:27;100477.89;;;4.29;63.34
77381;BME280;66439;50.106;10.996;2024-01-27T06:14:29;100476.34;;;4.29;63.61
77381;BME280;66439;50.106;10.996;2024-01-27T06:16:32;100480.81;;;4.30;63.53
77381;BME280;66439;50.106;10.996;2024-01-27T06:18:35;100476.30;;;4.32;63.55
77381;BME280;66439;50.106;10.996;2024-01-27T06:20:38;100478.20;;;4.35;63.37
77381;BME280;66439;50.106;10.996;2024-01-27T06:22:43;100478.87;;;4.38;63.53
77381;BME280;66439;50.106;10.996;2024-01-27T06:24:46;100480.94;;;4.42;63.55
77381;BME280;66439;50.106;10.996;2024-01-27T06:26:49;100487.64;;;4.44;63.46
77381;BME280;66439;50.106;10.996;2024-01-27T06:28:52;100494.14;;;4.46;63.43
77381;BME280;66439;50.106;10.996;2024-01-27T06:30:56;100492.11;;;4.48;63.60
77381;BME280;66439;50.106;10.996;2024-01-27T06:32:59;100497.30;;;4.49;63.69
77381;BME280;66439;50.106;10.996;2024-01-27T06:35:03;100495.20;;;4.52;63.72
77381;BME280;66439;50.106;10.996;2024-01-27T06:37:06;100495.62;;;4.53;63.82
77381;BME280;66439;50.106;10.996;2024-01-27T06:39:08;100496.40;;;4.55;64.00
77381;BME280;66439;50.106;10.996;2024-01-27T06:41:12;100497.86;;;4.56;64.04
77381;BME280;66439;50.106;10.996;2024-01-27T06:43:14;100500.14;;;4.57;63.86
77381;BME280;66439;50.106;10.996;2024-01-27T06:45:17;100501.95;;;4.56;63.61
77381;BME280;66439;50.106;10.996;2024-01-27T06:47:20;100504.30;;;4.55;63.44
77381;BME280;66439;50.106;10.996;2024-01-27T06:49:22;100506.61;;;4.55;63.52
77381;BME280;66439;50.106;10.996;2024-01-27T06:51:25;100513.45;;;4.55;63.51
77381;BME280;66439;50.106;10.996;2024-01-27T06:53:28;100516.38;;;4.53;63.37
77381;BME280;66439;50.106;10.996;2024-01-27T06:55:30;100520.29;;;4.52;63.62
77381;BME280;66439;50.106;10.996;2024-01-27T06:57:33;100523.90;;;4.50;63.55
77381;BME280;66439;50.106;10.996;2024-01-27T06:59:35;100525.23;;;4.49;63.31
77381;BME280;66439;50.106;10.996;2024-01-27T07:01:38;100528.53;;;4.47;63.40
77381;BME280;66439;50.106;10.996;2024-01-27T07:03:42;100531.79;;;4.46;63.15
77381;BME280;66439;50.106;10.996;2024-01-27T07:05:47;100539.71;;;4.42;63.32
77381;BME280;66439;50.106;10.996;2024-01-27T07:07:50;100539.67;;;4.40;63.44
77381;BME280;66439;50.106;10.996;2024-01-27T07:09:54;100548.36;;;4.38;63.49
77381;BME280;66439;50.106;10.996;2024-01-27T07:11:58;100552.36;;;4.36;63.59
77381;BME280;66439;50.106;10.996;2024-01-27T07:14:02;100555.65;;;4.34;63.54
77381;BME280;66439;50.106;10.996;2024-01-27T07:16:05;100559.11;;;4.32;63.32
77381;BME280;66439;50.106;10.996;2024-01-27T07:18:08;100555.34;;;4.31;63.44
77381;BME280;66439;50.106;10.996;2024-01-27T07:20:12;100556.35;;;4.29;63.18
77381;BME280;66439;50.106;10.996;2024-01-27T07:22:15;100558.61;;;4.26;63.18
77381;BME280;66439;50.106;10.996;2024-01-27T07:24:17;100563.70;;;4.23;63.31
77381;BME280;66439;50.106;10.996;2024-01-27T07:26:20;100567.78;;;4.20;63.25
77381;BME280;66439;50.106;10.996;2024-01-27T07:28:22;100562.34;;;4.15;63.39
77381;BME280;66439;50.106;10.996;2024-01-27T07:30:25;100557.74;;;4.09;63.07
77381;BME280;66439;50.106;10.996;2024-01-27T07:32:28;100559.59;;;4.00;62.96
77381;BME280;66439;50.106;10.996;2024-01-27T07:34:31;100559.69;;;3.90;63.28
77381;BME280;66439;50.106;10.996;2024-01-27T07:36:33;100559.63;;;3.85;63.54
77381;BME280;66439;50.106;10.996;2024-01-27T07:38:36;100566.88;;;3.81;63.58
77381;BME280;66439;50.106;10.996;2024-01-27T07:40:39;100567.67;;;3.77;63.76
77381;BME280;66439;50.106;10.996;2024-01-27T07:42:42;100568.50;;;3.74;64.03
77381;BME280;66439;50.106;10.996;2024-01-27T07:44:44;100572.35;;;3.75;64.04
77381;BME280;66439;50.106;10.996;2024-01-27T07:46:47;100569.77;;;3.77;64.10
77381;BME280;66439;50.106;10.996;2024-01-27T07:48:50;100568.61;;;3.81;64.02
77381;BME280;66439;50.106;10.996;2024-01-27T07:50:52;100571.18;;;3.82;64.03
77381;BME280;66439;50.106;10.996;2024-01-27T07:52:57;100574.30;;;3.83;64.16
77381;BME280;66439;50.106;10.996;2024-01-27T07:55:00;100570.35;;;3.81;64.24
77381;BME280;66439;50.106;10.996;2024-01-27T07:57:02;100566.08;;;3.80;64.45
77381;BME280;66439;50.106;10.996;2024-01-27T07:59:05;100568.27;;;3.78;64.43
77381;BME280;66439;50.106;10.996;2024-01-27T08:01:07;100571.38;;;3.79;64.52
77381;BME280;66439;50.106;10.996;2024-01-27T08:03:10;100572.04;;;3.80;64.49
77381;BME280;66439;50.106;10.996;2024-01-27T08:05:13;100572.55;;;3.83;64.62
77381;BME280;66439;50.106;10.996;2024-01-27T08:07:18;100574.83;;;3.88;64.58
77381;BME280;66439;50.106;10.996;2024-01-27T08:09:20;100572.84;;;3.93;64.41
77381;BME280;66439;50.106;10.996;2024-01-27T08:11:23;100574.25;;;3.98;64.46
77381;BME280;66439;50.106;10.996;2024-01-27T08:13:27;100572.13;;;4.01;64.37
77381;BME280;66439;50.106;10.996;2024-01-27T08:15:30;100579.33;;;4.03;64.56
77381;BME280;66439;50.106;10.996;2024-01-27T08:17:33;100584.45;;;4.06;64.49
77381;BME280;66439;50.106;10.996;2024-01-27T08:19:35;100582.15;;;4.09;64.55
77381;BME280;66439;50.106;10.996;2024-01-27T08:21:38;100578.33;;;4.11;64.54
77381;BME280;66439;50.106;10.996;2024-01-27T08:23:41;100578.52;;;4.17;64.73
77381;BME280;66439;50.106;10.996;2024-01-27T08:25:43;100579.83;;;4.24;64.53
77381;BME280;66439;50.106;10.996;2024-01-27T08:27:49;100572.12;;;4.29;64.44
77381;BME280;66439;50.106;10.996;2024-01-27T08:29:52;100572.02;;;4.33;64.35
77381;BME280;66439;50.106;10.996;2024-01-27T08:31:59;100576.82;;;4.38;64.44
77381;BME280;66439;50.106;10.996;2024-01-27T08:34:03;100579.48;;;4.40;64.24
77381;BME280;66439;50.106;10.996;2024-01-27T08:36:06;100588.80;;;4.43;64.45
77381;BME280;66439;50.106;10.996;2024-01-27T08:38:09;100590.73;;;4.49;64.19
77381;BME280;66439;50.106;10.996;2024-01-27T08:40:12;100591.98;;;4.54;64.18
77381;BME280;66439;50.106;10.996;2024-01-27T08:42:16;100592.67;;;4.59;64.36
77381;BME280;66439;50.106;10.996;2024-01-27T08:44:19;100592.42;;;4.68;64.61
77381;BME280;66439;50.106;10.996;2024-01-27T08:46:22;100593.46;;;4.77;64.70
77381;BME280;66439;50.106;10.996;2024-01-27T08:48:25;100597.79;;;4.86;64.51
77381;BME280;66439;50.106;10.996;2024-01-27T08:50:28;100602.45;;;4.90;64.36
77381;BME280;66439;50.106;10.996;2024-01-27T08:52:31;100606.08;;;4.94;64.42
77381;BME280;66439;50.106;10.996;2024-01-27T08:54:36;100605.92;;;4.99;64.14
77381;BME280;66439;50.106;10.996;2024-01-27T08:56:40;100608.05;;;4.98;63.94
77381;BME280;66439;50.106;10.996;2024-01-27T08:58:43;100615.42;;;4.98;63.99
77381;BME280;66439;50.106;10.996;2024-01-27T09:00:46;100617.77;;;5.00;64.16
77381;BME280;66439;50.106;10.996;2024-01-27T09:02:49;100612.77;;;5.04;63.91
77381;BME280;66439;50.106;10.996;2024-01-27T09:04:52;100612.10;;;5.06;63.89
77381;BME280;66439;50.106;10.996;2024-01-27T09:06:55;100612.51;;;5.08;64.01
77381;BME280;66439;50.106;10.996;2024-01-27T09:08:57;100612.81;;;5.14;63.97
77381;BME280;66439;50.106;10.996;2024-01-27T09:11:03;100613.55;;;5.19;64.03
77381;BME280;66439;50.106;10.996;2024-01-27T09:13:06;100615.58;;;5.23;64.04
77381;BME280;66439;50.106;10.996;2024-01-27T09:15:09;100617.54;;;5.28;64.25
77381;BME280;66439;50.106;10.996;2024-01-27T09:17:12;100619.74;;;5.31;64.24
77381;BME280;66439;50.106;10.996;2024-01-27T09:19:15;100616.98;;;5.36;64.14
77381;BME280;66439;50.106;10.996;2024-01-27T09:21:19;100620.33;;;5.39;63.73
77381;BME280;66439;50.106;10.996;2024-01-27T09:23:23;100625.12;;;5.41;63.44
77381;BME280;66439;50.106;10.996;2024-01-27T09:25:25;100622.66;;;5.43;63.63
77381;BME280;66439;50.106;10.996;2024-01-27T09:27:28;100619.16;;;5.46;63.86
77381;BME280;66439;50.106;10.996;2024-01-27T09:29:31;100618.85;;;5.50;63.68
77381;BME280;66439;50.106;10.996;2024-01-27T09:31:33;100623.39;;;5.53;63.82
77381;BME280;66439;50.106;10.996;2024-01-27T09:33:36;100622.98;;;5.57;63.92
77381;BME280;66439;50.106;10.996;2024-01-27T09:35:40;100633.66;;;5.62;64.08
77381;BME280;66439;50.106;10.996;2024-01-27T09:37:42;100634.73;;;5.65;63.86
77381;BME280;66439;50.106;10.996;2024-01-27T09:39:45;100637.90;;;5.67;63.70
77381;BME280;66439;50.106;10.996;2024-01-27T09:41:48;100640.23;;;5.69;63.56
77381;BME280;66439;50.106;10.996;2024-01-27T09:43:54;100640.52;;;5.70;63.49
77381;BME280;66439;50.106;10.996;2024-01-27T09:45:59;100638.95;;;5.73;63.70
77381;BME280;66439;50.106;10.996;2024-01-27T09:48:03;100642.01;;;5.77;63.46
77381;BME280;66439;50.106;10.996;2024-01-27T09:50:08;100641.14;;;5.79;63.37
77381;BME280;66439;50.106;10.996;2024-01-27T09:52:14;100634.88;;;5.81;63.61
77381;BME280;66439;50.106;10.996;2024-01-27T09:54:17;100631.45;;;5.84;63.56
77381;BME280;66439;50.106;10.996;2024-01-27T09:56:22;100631.34;;;5.89;63.76
77381;BME280;66439;50.106;10.996;2024-01-27T09:58:26;100627.05;;;5.93;63.81
77381;BME280;66439;50.106;10.996;2024-01-27T10:00:29;100626.15;;;5.96;63.80
77381;BME280;66439;50.106;10.996;2024-01-27T10:02:32;100623.89;;;5.98;63.53
77381;BME280;66439;50.106;10.996;2024-01-27T10:04:35;100625.55;;;6.02;63.62
77381;BME280;66439;50.106;10.996;2024-01-27T10:06:38;100627.00;;;6.06;63.97
77381;BME280;66439;50.106;10.996;2024-01-27T10:08:51;100623.38;;;6.10;63.96
77381;BME280;66439;50.106;10.996;2024-01-27T10:10:58;100619.86;;;6.18;63.55
77381;BME280;66439;50.106;10.996;2024-01-27T10:13:03;100623.20;;;6.23;63.59
77381;BME280;66439;50.106;10.996;2024-01-27T10:15:06;100616.27;;;6.28;63.80
77381;BME280;66439;50.106;10.996;2024-01-27T10:17:10;100617.70;;;6.36;63.95
77381;BME280;66439;50.106;10.996;2024-01-27T10:19:18;100609.38;;;6.42;63.58
77381;BME280;66439;50.106;10.996;2024-01-27T10:21:21;100608.62;;;6.47;63.59
77381;BME280;66439;50.106;10.996;2024-01-27T10:23:26;100607.19;;;6.52;63.40
77381;BME280;66439;50.106;10.996;2024-01-27T10:25:28;100606.97;;;6.55;63.06
77381;BME280;66439;50.106;10.996;2024-01-27T10:27:31;100608.70;;;6.58;63.02
77381;BME280;66439;50.106;10.996;2024-01-27T10:29:34;100610.95;;;6.61;62.66
77381;BME280;66439;50.106;10.996;2024-01-27T10:31:36;100612.77;;;6.66;63.05
77381;BME280;66439;50.106;10.996;2024-01-27T10:33:51;100613.45;;;6.70;63.04
77381;BME280;66439;50.106;10.996;2024-01-27T10:35:57;100612.52;;;6.73;62.90
77381;BME280;66439;50.106;10.996;2024-01-27T10:38:01;100609.19;;;6.73;62.70
77381;BME280;66439;50.106;10.996;2024-01-27T10:40:06;100613.72;;;6.74;62.56
77381;BME280;66439;50.106;10.996;2024-01-27T10:42:12;100609.77;;;6.77;62.97
77381;BME280;66439;50.106;10.996;2024-01-27T10:44:17;100606.87;;;6.80;62.77